• Join FlightAware (Why Join?)
  • Login
  • US Flag 
Gobble Gobble! 
11:28AM EST


 

Airport Tracker/Info


-or-


 

Live Flight TrackerFlight Track Log ✈ CTL309 ✈ 06-Jun-2013 ✈ KOSU - KHAO

Flight Track Log - Related Links

Times and Time Zones

All times are in EDT time to prevent confusion due to time zone crossing. See the CTL309 flight status page for this flight to view local times or setup timezone preferences in your user account.

Time Position Orientation Groundspeed Altitude Reporting Facility
EDT Latitude Longitude Course Direction KTS MPH feet Rate Location/Type
03:48AM 40.0758 -83.0956 256° West 115 132 1,400  Level Indianapolis Center
03:49AM 40.0658 -83.1464 256° West 148 170 2,200 600 Climbing Indianapolis Center
03:50AM 40.0486 -83.1789 235° Southwest 144 166 2,500 480 Climbing Indianapolis Center
03:50AM 40.0419 -83.1897 231° Southwest 159 183 2,700 780 Climbing Indianapolis Center
03:51AM 40.0244 -83.2258 238° Southwest 151 174 3,300 780 Climbing Indianapolis Center
03:51AM 40.0175 -83.2386 235° Southwest 150 173 3,500 480 Climbing Indianapolis Center
03:52AM 40.0017 -83.2689 236° Southwest 148 170 3,800 240 Climbing Indianapolis Center
03:52AM 39.9936 -83.2819 231° Southwest 143 165 3,800  Level Indianapolis Center
03:53AM 39.9819 -83.3089 241° Southwest 150 173 3,800 60 Level Indianapolis Center
03:53AM 39.9714 -83.3311 238° Southwest 160 184 3,900 -120 Climbing Indianapolis Center
03:54AM 39.9592 -83.3589 240° Southwest 155 178 3,700 -120 Descending Indianapolis Center
03:54AM 39.9511 -83.3803 244° Southwest 164 189 3,800 60 Climbing Indianapolis Center
03:55AM 39.9369 -83.4069 235° Southwest 155 178 3,800 60 Level Indianapolis Center
03:55AM 39.9267 -83.4264 235° Southwest 149 171 3,900  Climbing Indianapolis Center
03:56AM 39.9142 -83.4519 237° Southwest 152 175 3,800 -120 Descending Indianapolis Center
03:56AM 39.9025 -83.4722 233° Southwest 154 177 3,800  Level Indianapolis Center
03:57AM 39.8872 -83.5056 239° Southwest 152 175 3,800  Level Indianapolis Center
03:57AM 39.8803 -83.5186 235° Southwest 151 174 3,800 180 Level Indianapolis Center
03:58AM 39.8647 -83.5514 238° Southwest 152 175 4,000  Climbing Indianapolis Center
03:58AM 39.8556 -83.5700 237° Southwest 154 177 3,800 -120 Descending Indianapolis Center
03:59AM 39.8414 -83.5969 236° Southwest 152 175 3,900  Climbing Indianapolis Center
03:59AM 39.8314 -83.6158 235° Southwest 177 204 3,800 -120 Descending Indianapolis Center
04:00AM 39.8169 -83.6439 236° Southwest 154 177 3,800  Level Indianapolis Center
04:00AM 39.8092 -83.6619 241° Southwest 156 180 3,800  Level Indianapolis Center
04:01AM 39.7928 -83.6911 234° Southwest 155 178 3,800  Level Indianapolis Center
04:01AM 39.7847 -83.7078 238° Southwest 154 177 3,800  Level Indianapolis Center
04:02AM 39.7692 -83.7378 236° Southwest 155 178 3,800  Level Indianapolis Center
04:02AM 39.7600 -83.7561 237° Southwest 155 178 3,800 60 Level Indianapolis Center
04:03AM 39.7458 -83.7861 238° Southwest 156 180 3,900  Climbing Indianapolis Center
04:03AM 39.7378 -83.8022 237° Southwest 156 180 3,800 -120 Descending Indianapolis Center
04:04AM 39.7250 -83.8250 234° Southwest 156 180 3,800  Level Indianapolis Center
04:04AM 39.7133 -83.8481 237° Southwest 156 180 3,800  Level Indianapolis Center
04:05AM 39.7003 -83.8722 235° Southwest 157 181 3,800  Level Indianapolis Center
04:05AM 39.6889 -83.8964 239° Southwest 153 176 3,800  Level Indianapolis Center
04:06AM 39.6750 -83.9208 234° Southwest 159 183 3,800  Level Indianapolis Center
04:07AM 39.6494 -83.9678 235° Southwest 159 183 3,800  Level Indianapolis Center
04:08AM 39.6264 -84.0158 238° Southwest 157 181 3,900  Climbing Indianapolis Center
04:09AM 39.6025 -84.0633 237° Southwest 156 180 3,900  Level Indianapolis Center
04:10AM 39.5767 -84.1114 235° Southwest 158 182 3,900  Level Indianapolis Center
04:11AM 39.5522 -84.1589 236° Southwest 158 182 3,900 -420 Level Indianapolis Center
04:12AM 39.5256 -84.2094 236° Southwest 162 186 3,100 -540 Descending Indianapolis Center
04:13AM 39.4978 -84.2647 237° Southwest 173 199 2,900 -120 Descending Indianapolis Center
04:14AM 39.4711 -84.3114 233° Southwest 169 194 2,900 -60 Level Indianapolis Center
04:15AM 39.4447 -84.3597 235° Southwest 164 189 2,800 -120 Descending Indianapolis Center